Time;durP1;ratioP1;P1;durP2;ratioP2;P2;SDS_P1;SDS_P2;PMS_P1;PMS_P2;Temp;Humidity;BMP_temperature;BMP_pressure;BME280_temperature;BME280_humidity;BME280_pressure;Samples;Min_cycle;Max_cycle;Signal;HPM_P1;HPM_P2
2021/07/09 00:01:45;;;;;;;41.08;30.80;;;;;;;;;;5056700;28;20041;-83
2021/07/09 00:04:14;;;;;;;45.45;32.80;;;;;;;;;;5038554;28;20104;-82
2021/07/09 00:06:42;;;;;;;50.20;33.97;;;;;;;;;;5020037;28;20045;-83
2021/07/09 00:09:09;;;;;;;51.95;35.15;;;;;;;;;;5019886;28;20061;-82
2021/07/09 00:11:38;;;;;;;46.97;32.38;;;;;;;;;;5020036;28;20112;-82
2021/07/09 00:14:06;;;;;;;46.53;32.47;;;;;;;;;;5038032;28;20053;-82
2021/07/09 00:16:33;;;;;;;48.58;31.95;;;;;;;;;;5019723;28;20045;-82
2021/07/09 00:19:02;;;;;;;43.53;29.40;;;;;;;;;;5036946;28;20103;-81
2021/07/09 00:21:28;;;;;;;41.72;28.90;;;;;;;;;;5019491;28;20057;-82
2021/07/09 00:23:55;;;;;;;44.03;27.80;;;;;;;;;;5036397;28;20055;-82
2021/07/09 00:26:22;;;;;;;38.22;27.15;;;;;;;;;;5019294;28;20061;-82
2021/07/09 00:28:49;;;;;;;35.90;26.10;;;;;;;;;;5020310;28;20147;-84
2021/07/09 00:31:15;;;;;;;38.72;27.10;;;;;;;;;;5050330;28;20050;-81
2021/07/09 00:33:42;;;;;;;37.38;25.58;;;;;;;;;;5064435;28;20067;-82
2021/07/09 00:36:09;;;;;;;35.83;24.30;;;;;;;;;;5065908;28;20049;-82
2021/07/09 00:38:36;;;;;;;31.80;24.25;;;;;;;;;;5041572;28;20056;-82
2021/07/09 00:41:03;;;;;;;36.40;24.40;;;;;;;;;;5058248;28;20098;-82
2021/07/09 00:43:32;;;;;;;33.08;23.65;;;;;;;;;;5057336;28;20364;-82
2021/07/09 00:45:59;;;;;;;44.65;22.17;;;;;;;;;;5057040;28;20053;-82
2021/07/09 00:48:28;;;;;;;31.83;17.20;;;;;;;;;;5040449;28;20076;-82
2021/07/09 00:51:03;;;;;;;26.77;16.67;;;;;;;;;;5039786;28;20294;-82
2021/07/09 00:53:36;;;;;;;23.02;15.10;;;;;;;;;;5057967;28;20240;-82
2021/07/09 00:56:03;;;;;;;31.35;16.25;;;;;;;;;;5057310;28;20184;-82
2021/07/09 00:58:30;;;;;;;20.85;14.60;;;;;;;;;;5041063;28;20049;-82
2021/07/09 01:00:57;;;;;;;19.75;14.38;;;;;;;;;;5040503;28;20117;-82
2021/07/09 01:03:30;;;;;;;23.40;15.35;;;;;;;;;;5039834;28;20421;-82
2021/07/09 01:05:57;;;;;;;21.58;14.23;;;;;;;;;;5071301;28;20056;-82
2021/07/09 01:08:24;;;;;;;22.15;13.43;;;;;;;;;;5078340;28;20393;-82
2021/07/09 01:10:51;;;;;;;21.20;13.65;;;;;;;;;;5059820;28;20095;-82
2021/07/09 01:13:18;;;;;;;19.63;13.93;;;;;;;;;;5076834;28;20432;-83
2021/07/09 01:15:47;;;;;;;24.20;15.27;;;;;;;;;;5078104;28;20385;-83
2021/07/09 01:18:13;;;;;;;20.08;15.10;;;;;;;;;;5060839;28;20041;-82
2021/07/09 01:20:41;;;;;;;18.25;13.60;;;;;;;;;;5077641;28;20049;-82
2021/07/09 01:23:09;;;;;;;22.13;14.70;;;;;;;;;;5077276;28;20319;-83
2021/07/09 01:25:36;;;;;;;23.15;14.50;;;;;;;;;;5039116;28;20057;-83
2021/07/09 01:28:05;;;;;;;26.38;15.93;;;;;;;;;;5036887;28;20045;-83
2021/07/09 01:30:41;;;;;;;23.88;15.73;;;;;;;;;;5037489;28;20060;-83
2021/07/09 01:33:07;;;;;;;25.30;16.75;;;;;;;;;;5036425;28;20053;-83
2021/07/09 01:35:34;;;;;;;27.60;15.98;;;;;;;;;;5048566;28;20083;-83
2021/07/09 01:38:03;;;;;;;24.02;16.95;;;;;;;;;;5056819;28;20049;-83
2021/07/09 01:40:30;;;;;;;23.70;16.65;;;;;;;;;;5056989;28;20053;-83
2021/07/09 01:42:57;;;;;;;24.70;16.38;;;;;;;;;;5059021;28;20163;-83
2021/07/09 01:45:24;;;;;;;19.85;15.40;;;;;;;;;;5057533;28;20056;-83
2021/07/09 01:47:52;;;;;;;18.90;15.82;;;;;;;;;;5058509;28;20471;-82
2021/07/09 01:50:22;;;;;;;24.73;16.85;;;;;;;;;;5059649;28;20053;-82
2021/07/09 01:52:50;;;;;;;25.10;16.60;;;;;;;;;;5058141;28;20049;-83
2021/07/09 01:55:26;;;;;;;23.80;16.08;;;;;;;;;;5058584;28;20416;-83
2021/07/09 01:57:52;;;;;;;23.15;15.38;;;;;;;;;;5057351;28;20060;-83
2021/07/09 02:00:20;;;;;;;21.92;15.15;;;;;;;;;;5059317;28;20061;-82
2021/07/09 02:02:47;;;;;;;24.60;17.55;;;;;;;;;;5057952;28;20409;-82
2021/07/09 02:05:16;;;;;;;28.90;18.42;;;;;;;;;;5048564;28;20049;-83
2021/07/09 02:07:43;;;;;;;25.10;19.38;;;;;;;;;;5018177;28;20516;-83
2021/07/09 02:10:11;;;;;;;31.23;19.35;;;;;;;;;;5027844;28;20053;-82
2021/07/09 02:12:41;;;;;;;25.58;20.55;;;;;;;;;;5032076;28;20109;-85
2021/07/09 02:15:11;;;;;;;29.75;19.70;;;;;;;;;;5031343;28;20414;-85
2021/07/09 02:17:38;;;;;;;32.13;21.50;;;;;;;;;;5033916;28;20064;-85
2021/07/09 02:20:08;;;;;;;33.70;21.95;;;;;;;;;;5033668;28;20101;-85
2021/07/09 02:22:38;;;;;;;33.05;21.23;;;;;;;;;;5033919;28;20061;-85
2021/07/09 02:25:05;;;;;;;29.13;20.92;;;;;;;;;;5031336;28;20061;-85
2021/07/09 02:27:36;;;;;;;29.42;22.58;;;;;;;;;;5028856;28;20049;-85
2021/07/09 02:30:12;;;;;;;33.17;23.75;;;;;;;;;;5035824;28;20046;-85
2021/07/09 02:32:39;;;;;;;39.92;25.25;;;;;;;;;;5040226;28;20030;-85
2021/07/09 02:35:16;;;;;;;39.00;25.05;;;;;;;;;;5039263;28;20041;-85
2021/07/09 02:37:44;;;;;;;36.47;25.45;;;;;;;;;;5036334;28;20053;-85
2021/07/09 02:40:14;;;;;;;31.23;25.10;;;;;;;;;;5034538;28;20109;-85
2021/07/09 02:42:45;;;;;;;39.42;26.50;;;;;;;;;;5034527;28;20046;-86
2021/07/09 02:45:12;;;;;;;40.70;26.23;;;;;;;;;;5033522;28;20050;-87
2021/07/09 02:47:39;;;;;;;39.53;26.27;;;;;;;;;;5033437;28;20053;-86
2021/07/09 02:50:17;;;;;;;34.00;24.15;;;;;;;;;;5034826;28;20061;-86
2021/07/09 02:52:44;;;;;;;36.42;25.23;;;;;;;;;;5035816;28;20054;-85
2021/07/09 02:55:31;;;;;;;31.85;24.33;;;;;;;;;;5033108;28;20054;-89
2021/07/09 02:57:58;;;;;;;32.83;23.83;;;;;;;;;;5032246;28;20077;-86
2021/07/09 03:00:43;;;;;;;33.97;22.40;;;;;;;;;;5032407;28;20072;-85
2021/07/09 03:03:09;;;;;;;28.48;21.85;;;;;;;;;;5032487;28;20101;-87
2021/07/09 03:05:36;;;;;;;32.25;21.90;;;;;;;;;;5032578;28;20054;-85
2021/07/09 03:08:03;;;;;;;32.30;22.90;;;;;;;;;;5031797;28;20050;-85
2021/07/09 03:10:30;;;;;;;29.23;21.05;;;;;;;;;;5033614;28;20060;-86
2021/07/09 03:12:57;;;;;;;28.40;20.25;;;;;;;;;;5033319;28;20050;-84
2021/07/09 03:15:23;;;;;;;25.75;20.55;;;;;;;;;;5033205;28;20050;-85
2021/07/09 03:17:50;;;;;;;27.20;19.00;;;;;;;;;;5033274;28;20050;-86
2021/07/09 03:20:16;;;;;;;22.98;18.35;;;;;;;;;;5031868;28;20054;-86
2021/07/09 03:22:46;;;;;;;19.80;15.68;;;;;;;;;;5032207;28;20060;-86
2021/07/09 03:25:13;;;;;;;18.05;14.90;;;;;;;;;;5032326;28;20062;-85
2021/07/09 03:30:56;;;;;;;29.20;20.52;;;;;;;;;;5050011;28;20057;-84
2021/07/09 03:33:23;;;;;;;23.88;20.77;;;;;;;;;;5036548;28;20231;-85
2021/07/09 03:35:50;;;;;;;31.05;20.95;;;;;;;;;;5042661;28;20049;-84
2021/07/09 03:38:20;;;;;;;26.55;20.33;;;;;;;;;;5050105;28;20152;-86
2021/07/09 03:40:47;;;;;;;28.90;19.38;;;;;;;;;;5048813;28;20045;-84
2021/07/09 03:43:13;;;;;;;25.55;18.92;;;;;;;;;;5052227;28;20113;-85
2021/07/09 03:45:40;;;;;;;20.83;17.33;;;;;;;;;;5052469;28;20049;-86
2021/07/09 03:48:07;;;;;;;19.35;15.45;;;;;;;;;;5046124;28;20045;-85
2021/07/09 03:50:33;;;;;;;22.65;14.75;;;;;;;;;;5050330;28;20053;-84
2021/07/09 03:53:00;;;;;;;16.08;13.63;;;;;;;;;;5036874;28;20042;-84
2021/07/09 03:55:27;;;;;;;23.70;14.18;;;;;;;;;;5038123;28;20045;-82
2021/07/09 03:57:56;;;;;;;21.48;15.43;;;;;;;;;;5036086;28;20069;-85
2021/07/09 04:00:24;;;;;;;18.73;14.38;;;;;;;;;;5031708;28;20132;-85
2021/07/09 04:02:51;;;;;;;18.75;13.63;;;;;;;;;;5045936;28;20034;-85
2021/07/09 04:05:17;;;;;;;16.55;12.60;;;;;;;;;;5050600;28;20049;-84
2021/07/09 04:07:44;;;;;;;16.08;11.82;;;;;;;;;;5033922;28;20049;-84
2021/07/09 04:10:34;;;;;;;16.70;12.00;;;;;;;;;;5031247;28;20068;-85
2021/07/09 04:13:03;;;;;;;12.75;10.18;;;;;;;;;;5031548;28;20053;-84
2021/07/09 04:15:30;;;;;;;11.65;9.80;;;;;;;;;;5032009;28;20069;-84
2021/07/09 04:18:03;;;;;;;14.73;10.40;;;;;;;;;;5047504;28;20053;-85
2021/07/09 04:20:30;;;;;;;20.58;11.90;;;;;;;;;;5034681;28;20050;-84
2021/07/09 04:22:57;;;;;;;16.65;11.02;;;;;;;;;;5034118;28;20053;-85
2021/07/09 04:25:27;;;;;;;19.83;11.63;;;;;;;;;;5063548;28;20070;-85
2021/07/09 04:27:56;;;;;;;12.45;11.15;;;;;;;;;;5072763;28;20045;-85
2021/07/09 04:30:23;;;;;;;12.98;11.25;;;;;;;;;;5072214;28;20117;-85
2021/07/09 04:32:59;;;;;;;19.50;11.85;;;;;;;;;;5072518;28;20071;-85
2021/07/09 04:35:25;;;;;;;12.02;10.63;;;;;;;;;;5043093;28;20057;-85
2021/07/09 04:37:52;;;;;;;15.45;11.13;;;;;;;;;;5053714;28;20057;-83
2021/07/09 04:40:19;;;;;;;12.98;9.93;;;;;;;;;;5069320;28;20080;-85
2021/07/09 04:42:48;;;;;;;15.63;11.15;;;;;;;;;;5052957;28;20077;-84
2021/07/09 04:45:15;;;;;;;12.18;9.52;;;;;;;;;;5054415;28;20060;-85
2021/07/09 04:47:41;;;;;;;19.05;11.00;;;;;;;;;;5054000;28;20278;-85
2021/07/09 04:50:17;;;;;;;11.43;9.88;;;;;;;;;;5070904;28;20075;-85
2021/07/09 04:52:45;;;;;;;14.48;9.85;;;;;;;;;;5070936;28;20105;-85
2021/07/09 04:55:12;;;;;;;12.13;9.57;;;;;;;;;;5071276;28;20044;-85
2021/07/09 04:57:42;;;;;;;13.63;9.82;;;;;;;;;;5061743;28;20416;-85
2021/07/09 05:00:28;;;;;;;12.57;9.18;;;;;;;;;;5052990;28;20037;-85
2021/07/09 05:03:00;;;;;;;12.07;9.65;;;;;;;;;;5044468;28;20105;-83
2021/07/09 05:05:27;;;;;;;13.00;9.50;;;;;;;;;;5047943;28;20049;-85
2021/07/09 05:07:54;;;;;;;13.63;9.00;;;;;;;;;;5056528;28;20060;-86
2021/07/09 05:10:23;;;;;;;13.70;9.52;;;;;;;;;;5071827;28;20040;-86
2021/07/09 05:12:54;;;;;;;11.02;9.85;;;;;;;;;;5055935;28;20079;-85
2021/07/09 05:15:21;;;;;;;13.73;10.00;;;;;;;;;;5072247;28;20051;-85
2021/07/09 05:21:16;;;;;;;15.88;12.02;;;;;;;;;;5071396;28;20043;-86
2021/07/09 05:23:43;;;;;;;14.70;11.88;;;;;;;;;;5055934;28;20108;-86
2021/07/09 05:26:09;;;;;;;18.15;13.77;;;;;;;;;;5055620;28;20060;-85
2021/07/09 05:28:38;;;;;;;19.05;16.38;;;;;;;;;;5060071;28;20312;-85
2021/07/09 05:31:11;;;;;;;23.40;16.52;;;;;;;;;;5071151;28;20049;-85
2021/07/09 05:33:37;;;;;;;24.15;18.13;;;;;;;;;;5052964;28;20271;-84
2021/07/09 05:39:29;;;;;;;30.13;19.00;;;;;;;;;;5059087;28;20079;-84
2021/07/09 05:41:58;;;;;;;26.27;18.85;;;;;;;;;;5051382;28;20056;-86
2021/07/09 05:44:24;;;;;;;26.02;17.67;;;;;;;;;;5034231;28;20088;-85
2021/07/09 05:47:04;;;;;;;21.15;16.45;;;;;;;;;;5064862;28;20628;-86
2021/07/09 05:49:34;;;;;;;24.08;16.42;;;;;;;;;;5053914;28;20080;-84
2021/07/09 05:52:01;;;;;;;17.08;14.65;;;;;;;;;;5067643;28;20068;-85
2021/07/09 05:54:34;;;;;;;18.92;15.13;;;;;;;;;;5036651;28;20091;-85
2021/07/09 05:57:01;;;;;;;16.85;14.10;;;;;;;;;;5059691;28;20056;-85
2021/07/09 05:59:27;;;;;;;17.33;13.60;;;;;;;;;;5061365;28;20340;-84
2021/07/09 06:02:02;;;;;;;21.02;13.75;;;;;;;;;;5036604;28;20101;-86
2021/07/09 06:04:30;;;;;;;15.65;11.30;;;;;;;;;;5039584;28;20056;-84
2021/07/09 06:06:56;;;;;;;20.35;10.93;;;;;;;;;;5071688;28;20052;-85
2021/07/09 06:09:39;;;;;;;15.70;10.77;;;;;;;;;;5076567;28;20055;-83
2021/07/09 06:12:06;;;;;;;15.02;10.18;;;;;;;;;;5058715;28;20117;-86
2021/07/09 06:14:32;;;;;;;18.40;10.85;;;;;;;;;;5048540;28;20107;-85
2021/07/09 06:17:05;;;;;;;12.93;9.80;;;;;;;;;;5034755;28;20473;-85
2021/07/09 06:19:32;;;;;;;14.02;9.40;;;;;;;;;;5051309;28;20063;-85
2021/07/09 06:21:59;;;;;;;14.02;9.35;;;;;;;;;;5043917;28;20059;-85
2021/07/09 06:24:52;;;;;;;14.75;9.50;;;;;;;;;;5061253;28;20110;-85
2021/07/09 06:27:20;;;;;;;14.10;8.55;;;;;;;;;;5049039;28;20423;-85
2021/07/09 06:29:47;;;;;;;12.15;7.25;;;;;;;;;;5070291;28;20071;-85
2021/07/09 06:32:39;;;;;;;15.05;7.25;;;;;;;;;;5055385;28;20076;-87
2021/07/09 06:35:07;;;;;;;12.25;7.75;;;;;;;;;;5049515;28;20081;-85
2021/07/09 06:37:33;;;;;;;10.88;6.88;;;;;;;;;;5049441;28;20049;-85
2021/07/09 06:40:01;;;;;;;12.48;6.82;;;;;;;;;;5040140;28;20140;-84
2021/07/09 06:42:30;;;;;;;9.75;6.75;;;;;;;;;;5038276;28;20045;-85
2021/07/09 06:44:57;;;;;;;10.32;6.63;;;;;;;;;;5062524;28;20046;-85
2021/07/09 06:47:27;;;;;;;11.98;6.00;;;;;;;;;;5055016;28;20060;-85
2021/07/09 06:49:53;;;;;;;11.05;6.07;;;;;;;;;;5065418;28;20120;-84
2021/07/09 06:52:20;;;;;;;9.82;5.78;;;;;;;;;;5069353;28;20072;-86
2021/07/09 06:54:47;;;;;;;13.75;5.75;;;;;;;;;;5064539;28;20112;-85
2021/07/09 06:57:14;;;;;;;8.82;5.43;;;;;;;;;;5038033;28;20216;-85
2021/07/09 06:59:42;;;;;;;10.93;5.15;;;;;;;;;;5049182;28;20233;-86
2021/07/09 07:02:09;;;;;;;8.45;5.65;;;;;;;;;;5050389;28;20355;-85
2021/07/09 07:04:42;;;;;;;8.65;5.18;;;;;;;;;;5056906;28;20048;-86
2021/07/09 07:07:09;;;;;;;15.75;6.60;;;;;;;;;;5061118;28;20049;-85
2021/07/09 07:09:38;;;;;;;11.18;5.65;;;;;;;;;;5054367;28;20160;-86
2021/07/09 07:12:11;;;;;;;17.27;6.80;;;;;;;;;;5052490;28;20056;-84
2021/07/09 07:14:37;;;;;;;10.18;5.95;;;;;;;;;;5042952;28;20101;-84
2021/07/09 07:17:04;;;;;;;10.25;6.28;;;;;;;;;;5059378;28;20083;-85
2021/07/09 07:19:56;;;;;;;12.95;7.03;;;;;;;;;;5061302;28;20032;-85
2021/07/09 07:22:22;;;;;;;13.73;6.95;;;;;;;;;;5058788;28;20072;-85
2021/07/09 07:24:51;;;;;;;12.60;6.35;;;;;;;;;;5042152;28;20088;-85
2021/07/09 07:30:35;;;;;;;14.57;6.90;;;;;;;;;;5030669;28;20070;-85
2021/07/09 07:33:02;;;;;;;11.07;6.55;;;;;;;;;;5031592;28;20077;-85
2021/07/09 07:35:30;;;;;;;13.35;6.68;;;;;;;;;;5027040;28;20057;-84
2021/07/09 07:38:09;;;;;;;11.68;6.10;;;;;;;;;;5025418;28;20042;-85
2021/07/09 07:40:36;;;;;;;8.90;5.28;;;;;;;;;;5027631;28;20057;-85
2021/07/09 07:43:05;;;;;;;10.82;5.65;;;;;;;;;;5025361;28;20064;-84
2021/07/09 07:45:34;;;;;;;10.25;5.50;;;;;;;;;;5027429;28;20106;-84
2021/07/09 07:48:00;;;;;;;14.65;5.97;;;;;;;;;;5026135;28;20045;-85
2021/07/09 07:50:27;;;;;;;13.20;5.65;;;;;;;;;;5025647;28;20057;-85
2021/07/09 07:52:55;;;;;;;9.90;6.03;;;;;;;;;;5026634;28;20109;-85
2021/07/09 07:55:21;;;;;;;11.25;5.25;;;;;;;;;;5024286;28;20117;-86
2021/07/09 07:57:55;;;;;;;9.38;5.10;;;;;;;;;;5026425;28;20129;-84
2021/07/09 08:00:22;;;;;;;11.65;6.45;;;;;;;;;;5026955;28;20054;-86
2021/07/09 08:02:48;;;;;;;11.52;5.20;;;;;;;;;;5025591;28;20100;-86
2021/07/09 08:05:16;;;;;;;5.95;4.88;;;;;;;;;;5024593;28;20052;-84
2021/07/09 08:07:51;;;;;;;8.98;5.38;;;;;;;;;;5026073;28;20138;-85
2021/07/09 08:10:18;;;;;;;;;;;;;;;;;;5026011;28;20058;-85
2021/07/09 08:12:44;;;;;;;14.63;5.90;;;;;;;;;;5027057;28;19925;-87
2021/07/09 08:15:17;;;;;;;8.48;5.05;;;;;;;;;;5025982;28;20061;-87
2021/07/09 08:17:44;;;;;;;9.60;5.53;;;;;;;;;;5026447;28;20318;-84
2021/07/09 08:20:11;;;;;;;12.95;5.22;;;;;;;;;;5024490;28;20060;-86
2021/07/09 08:22:37;;;;;;;10.35;5.72;;;;;;;;;;5025518;28;20212;-85
2021/07/09 08:25:05;;;;;;;9.38;5.40;;;;;;;;;;5033908;28;20087;-85
2021/07/09 08:27:39;;;;;;;11.00;5.07;;;;;;;;;;5044912;28;20049;-86
2021/07/09 08:30:12;;;;;;;9.85;5.80;;;;;;;;;;5026955;28;20045;-85
2021/07/09 08:32:40;;;;;;;10.68;4.95;;;;;;;;;;5028575;28;20112;-85
2021/07/09 08:35:09;;;;;;;9.35;5.15;;;;;;;;;;5029443;28;20214;-85
2021/07/09 08:37:53;;;;;;;7.85;5.30;;;;;;;;;;5029286;28;20045;-85
2021/07/09 08:40:22;;;;;;;10.40;4.85;;;;;;;;;;5044345;28;20111;-85
2021/07/09 08:42:52;;;;;;;10.20;5.40;;;;;;;;;;5052717;28;20045;-85
2021/07/09 08:45:23;;;;;;;7.18;4.93;;;;;;;;;;5029477;28;20065;-85
2021/07/09 08:47:53;;;;;;;15.90;5.82;;;;;;;;;;5043760;28;20110;-85
2021/07/09 08:50:22;;;;;;;8.40;6.05;;;;;;;;;;5029764;28;20219;-85
2021/07/09 08:53:01;;;;;;;11.02;5.93;;;;;;;;;;5036172;28;20049;-85
2021/07/09 08:55:28;;;;;;;9.18;5.30;;;;;;;;;;5029008;28;20294;-86
2021/07/09 08:57:57;;;;;;;14.80;5.38;;;;;;;;;;5051514;28;20116;-86
2021/07/09 09:00:41;;;;;;;9.50;6.18;;;;;;;;;;5059122;28;20079;-85
2021/07/09 09:03:40;;;;;;;9.63;5.63;;;;;;;;;;5036460;28;20064;-86
2021/07/09 09:06:15;;;;;;;10.93;5.45;;;;;;;;;;5048046;28;20096;-85
2021/07/09 09:08:42;;;;;;;10.30;4.80;;;;;;;;;;5048968;28;20113;-85
2021/07/09 09:11:24;;;;;;;8.07;4.60;;;;;;;;;;5066171;28;20053;-86
2021/07/09 09:13:54;;;;;;;10.98;5.05;;;;;;;;;;5039267;28;20061;-84
2021/07/09 09:16:21;;;;;;;7.25;4.22;;;;;;;;;;5048658;28;20082;-84
2021/07/09 09:18:49;;;;;;;10.48;4.22;;;;;;;;;;5053710;28;20064;-84
2021/07/09 09:21:20;;;;;;;9.05;4.35;;;;;;;;;;5049104;28;20060;-85
2021/07/09 09:23:50;;;;;;;7.75;4.22;;;;;;;;;;5048370;28;20187;-84
2021/07/09 09:26:38;;;;;;;8.15;3.72;;;;;;;;;;5057008;28;20100;-85
2021/07/09 09:29:06;;;;;;;11.88;4.22;;;;;;;;;;5030381;28;20091;-86
2021/07/09 09:31:50;;;;;;;7.60;4.03;;;;;;;;;;5031912;28;20271;-85
2021/07/09 09:34:34;;;;;;;10.20;4.18;;;;;;;;;;5042919;28;20143;-85
2021/07/09 09:37:09;;;;;;;12.00;4.10;;;;;;;;;;5045667;28;20040;-85
2021/07/09 09:39:39;;;;;;;8.85;3.72;;;;;;;;;;5036707;28;20108;-85
2021/07/09 09:42:06;;;;;;;6.18;2.97;;;;;;;;;;5040167;28;20150;-86
2021/07/09 09:44:40;;;;;;;12.40;3.40;;;;;;;;;;5039584;28;20049;-86
2021/07/09 09:47:13;;;;;;;7.05;3.05;;;;;;;;;;5056811;28;20051;-86
2021/07/09 09:49:41;;;;;;;6.20;2.85;;;;;;;;;;5044903;28;20256;-86
2021/07/09 09:52:08;;;;;;;7.72;3.40;;;;;;;;;;5045405;28;20112;-85
2021/07/09 09:54:46;;;;;;;6.65;3.15;;;;;;;;;;5040239;28;20092;-86
2021/07/09 09:57:18;;;;;;;3.85;2.38;;;;;;;;;;5057760;28;20064;-87
2021/07/09 09:59:45;;;;;;;6.57;2.58;;;;;;;;;;5058284;28;20049;-86
2021/07/09 10:02:12;;;;;;;7.20;3.10;;;;;;;;;;5034993;28;20045;-84
2021/07/09 10:04:39;;;;;;;7.55;2.75;;;;;;;;;;5057552;28;20041;-85
2021/07/09 10:07:06;;;;;;;9.38;2.50;;;;;;;;;;5060612;28;20049;-85
2021/07/09 10:09:33;;;;;;;7.93;3.08;;;;;;;;;;5045565;28;20049;-84
2021/07/09 10:12:03;;;;;;;5.60;2.75;;;;;;;;;;5047803;28;20115;-85
2021/07/09 10:14:32;;;;;;;10.02;2.78;;;;;;;;;;5052029;28;20471;-86
2021/07/09 10:17:04;;;;;;;6.72;3.03;;;;;;;;;;5027524;28;20053;-85
2021/07/09 10:19:38;;;;;;;8.40;3.25;;;;;;;;;;5048993;28;20075;-84
2021/07/09 10:22:25;;;;;;;7.93;2.67;;;;;;;;;;5049210;28;20056;-86
2021/07/09 10:24:54;;;;;;;7.07;3.10;;;;;;;;;;5034890;28;20060;-84
2021/07/09 10:27:23;;;;;;;5.15;2.40;;;;;;;;;;5032956;28;20069;-85
2021/07/09 10:30:00;;;;;;;4.05;2.20;;;;;;;;;;5024693;28;20078;-86
2021/07/09 10:32:34;;;;;;;7.38;3.28;;;;;;;;;;5028579;28;20105;-85
2021/07/09 10:35:03;;;;;;;4.53;2.28;;;;;;;;;;5044333;28;20045;-85
2021/07/09 10:37:31;;;;;;;5.55;2.33;;;;;;;;;;5032963;28;20438;-84
2021/07/09 10:40:08;;;;;;;4.70;2.33;;;;;;;;;;5035482;28;20072;-86
2021/07/09 10:42:44;;;;;;;6.97;2.15;;;;;;;;;;5033469;28;20298;-86
2021/07/09 10:45:23;;;;;;;4.68;3.13;;;;;;;;;;5019055;28;20084;-86
2021/07/09 10:48:00;;;;;;;6.55;2.80;;;;;;;;;;5029517;28;20113;-86
2021/07/09 10:50:41;;;;;;;7.00;2.60;;;;;;;;;;5024988;28;20045;-84
2021/07/09 10:53:19;;;;;;;9.77;3.22;;;;;;;;;;5025295;28;20130;-85
2021/07/09 10:55:47;;;;;;;7.18;3.08;;;;;;;;;;5040582;28;20197;-86
2021/07/09 10:58:17;;;;;;;5.57;3.10;;;;;;;;;;5041047;28;20049;-86
2021/07/09 11:00:44;;;;;;;6.63;3.35;;;;;;;;;;5038930;28;20177;-86
2021/07/09 11:03:29;;;;;;;8.90;3.78;;;;;;;;;;5033137;28;20042;-86
2021/07/09 11:06:00;;;;;;;9.00;3.15;;;;;;;;;;5043230;28;20077;-86
2021/07/09 11:08:32;;;;;;;;;;;;;;;;;;5030937;28;20076;-85
2021/07/09 11:11:02;;;;;;;7.75;3.42;;;;;;;;;;5040460;28;19927;-86
2021/07/09 11:13:40;;;;;;;7.45;3.40;;;;;;;;;;5026871;28;20081;-86
2021/07/09 11:16:17;;;;;;;7.97;3.58;;;;;;;;;;5041679;28;20052;-86
2021/07/09 11:18:59;;;;;;;11.10;4.03;;;;;;;;;;5042347;28;20077;-85
2021/07/09 11:21:29;;;;;;;6.60;3.83;;;;;;;;;;5059963;28;20139;-86
2021/07/09 11:24:17;;;;;;;7.78;3.80;;;;;;;;;;5048054;28;20117;-86
2021/07/09 11:27:01;;;;;;;5.70;3.42;;;;;;;;;;5057027;28;20226;-86
2021/07/09 11:29:32;;;;;;;8.48;3.40;;;;;;;;;;5037210;28;20037;-84
2021/07/09 11:32:05;;;;;;;5.38;3.30;;;;;;;;;;5035364;28;20265;-85
2021/07/09 11:34:34;;;;;;;6.72;3.40;;;;;;;;;;5038066;28;20076;-87
2021/07/09 11:37:02;;;;;;;10.93;3.67;;;;;;;;;;5054135;28;20049;-85
2021/07/09 11:39:31;;;;;;;9.40;4.25;;;;;;;;;;5056924;28;20113;-86
2021/07/09 11:41:59;;;;;;;8.93;3.55;;;;;;;;;;5042857;28;20075;-85
2021/07/09 11:47:49;;;;;;;5.50;3.17;;;;;;;;;;5054669;28;20028;-84
2021/07/09 11:50:19;;;;;;;6.35;3.08;;;;;;;;;;5046985;28;20077;-87
2021/07/09 11:52:57;;;;;;;5.47;3.40;;;;;;;;;;5047413;28;20037;-85
2021/07/09 11:55:30;;;;;;;12.77;3.78;;;;;;;;;;5044560;28;20059;-87
2021/07/09 11:58:06;;;;;;;7.80;3.88;;;;;;;;;;5033910;28;20507;-85
2021/07/09 12:00:33;;;;;;;7.15;3.28;;;;;;;;;;5057323;28;20100;-85
2021/07/09 12:03:00;;;;;;;5.25;3.42;;;;;;;;;;5040945;28;20334;-86
2021/07/09 12:05:27;;;;;;;6.55;3.70;;;;;;;;;;5040677;28;20119;-84
2021/07/09 12:08:09;;;;;;;7.15;3.10;;;;;;;;;;5033147;28;20429;-87
2021/07/09 12:10:37;;;;;;;4.68;3.15;;;;;;;;;;5032161;28;20076;-86
2021/07/09 12:13:05;;;;;;;7.53;3.25;;;;;;;;;;5051227;28;20045;-86
2021/07/09 12:15:36;;;;;;;4.60;3.28;;;;;;;;;;5032400;28;20049;-86
2021/07/09 12:18:03;;;;;;;6.45;3.33;;;;;;;;;;5045712;28;20054;-85
2021/07/09 12:20:31;;;;;;;4.28;2.63;;;;;;;;;;5044208;28;20049;-87
2021/07/09 12:23:12;;;;;;;6.63;3.53;;;;;;;;;;5037388;28;20045;-86
2021/07/09 12:25:40;;;;;;;6.03;3.10;;;;;;;;;;5029763;28;20073;-86
2021/07/09 12:28:11;;;;;;;8.55;3.47;;;;;;;;;;5043115;28;20185;-85
2021/07/09 12:30:49;;;;;;;5.47;3.45;;;;;;;;;;5040184;28;20046;-85
2021/07/09 12:33:18;;;;;;;6.18;3.47;;;;;;;;;;5032403;28;20107;-86
2021/07/09 12:35:52;;;;;;;7.43;3.13;;;;;;;;;;5034296;28;20050;-85
2021/07/09 12:38:19;;;;;;;6.25;3.10;;;;;;;;;;5024081;28;20081;-85
2021/07/09 12:40:47;;;;;;;6.65;3.40;;;;;;;;;;5028370;28;20045;-84
2021/07/09 12:43:44;;;;;;;6.85;3.47;;;;;;;;;;5039774;28;20052;-85
2021/07/09 12:46:13;;;;;;;7.30;3.25;;;;;;;;;;5027292;28;20183;-86
2021/07/09 12:48:41;;;;;;;4.45;2.50;;;;;;;;;;5036493;28;20128;-86
2021/07/09 12:51:29;;;;;;;5.55;2.60;;;;;;;;;;5033927;28;20045;-85
2021/07/09 12:53:55;;;;;;;6.82;2.83;;;;;;;;;;5039035;28;20041;-86
2021/07/09 12:56:23;;;;;;;3.67;2.30;;;;;;;;;;5037904;28;20045;-85
2021/07/09 12:59:10;;;;;;;3.78;2.67;;;;;;;;;;5042030;28;20218;-86
2021/07/09 13:01:38;;;;;;;4.60;2.40;;;;;;;;;;5035783;28;20073;-86
2021/07/09 13:04:17;;;;;;;7.72;2.90;;;;;;;;;;5024476;28;20045;-86
2021/07/09 13:06:44;;;;;;;6.22;2.85;;;;;;;;;;5042647;28;20313;-86
2021/07/09 13:09:15;;;;;;;6.95;3.10;;;;;;;;;;5027800;28;20211;-86
2021/07/09 13:12:13;;;;;;;11.77;3.58;;;;;;;;;;5029247;28;20362;-85
2021/07/09 13:14:51;;;;;;;6.63;3.10;;;;;;;;;;5041468;28;20084;-86
2021/07/09 13:17:18;;;;;;;7.45;3.60;;;;;;;;;;5032938;28;20065;-86
2021/07/09 13:19:55;;;;;;;6.78;2.88;;;;;;;;;;5031213;28;20117;-85
2021/07/09 13:22:39;;;;;;;6.22;3.05;;;;;;;;;;5024620;28;20050;-85
2021/07/09 13:25:09;;;;;;;5.68;3.53;;;;;;;;;;5026496;28;20246;-85
2021/07/09 13:27:36;;;;;;;8.77;4.88;;;;;;;;;;5031099;28;20053;-84
2021/07/09 13:30:05;;;;;;;9.00;4.88;;;;;;;;;;5031266;28;20137;-85
2021/07/09 13:32:32;;;;;;;6.13;3.85;;;;;;;;;;5023303;28;21037;-85
2021/07/09 13:35:01;;;;;;;7.95;3.50;;;;;;;;;;5030125;28;20049;-85
2021/07/09 13:37:28;;;;;;;10.00;5.80;;;;;;;;;;5037564;28;20056;-86
2021/07/09 13:39:57;;;;;;;12.80;5.40;;;;;;;;;;5044957;28;20125;-86
2021/07/09 13:42:24;;;;;;;10.55;4.65;;;;;;;;;;5042461;28;20230;-86
2021/07/09 13:44:50;;;;;;;8.82;4.45;;;;;;;;;;5039190;28;20046;-86
2021/07/09 13:47:19;;;;;;;9.00;4.28;;;;;;;;;;5034823;28;20065;-86
2021/07/09 13:50:01;;;;;;;7.43;4.40;;;;;;;;;;5039925;28;20169;-86
2021/07/09 13:52:27;;;;;;;10.65;4.60;;;;;;;;;;5033788;28;20061;-86
2021/07/09 13:54:54;;;;;;;7.22;3.70;;;;;;;;;;5031671;28;20049;-85
2021/07/09 13:57:36;;;;;;;7.00;3.95;;;;;;;;;;5048436;28;20154;-85
2021/07/09 14:00:04;;;;;;;10.45;5.45;;;;;;;;;;5048332;28;20125;-86
2021/07/09 14:02:31;;;;;;;8.23;5.13;;;;;;;;;;5045313;28;20109;-86
2021/07/09 14:05:08;;;;;;;10.82;4.93;;;;;;;;;;5041377;28;20183;-87
2021/07/09 14:07:35;;;;;;;7.10;4.38;;;;;;;;;;5027814;28;20314;-86
2021/07/09 14:10:03;;;;;;;10.30;4.85;;;;;;;;;;5022243;28;20054;-86
2021/07/09 14:12:30;;;;;;;7.95;4.45;;;;;;;;;;5022010;28;20060;-86
2021/07/09 14:14:57;;;;;;;8.07;5.40;;;;;;;;;;5023227;28;20057;-86
2021/07/09 14:17:23;;;;;;;10.02;6.32;;;;;;;;;;5023429;28;20060;-85
2021/07/09 14:19:56;;;;;;;13.45;6.88;;;;;;;;;;5023707;28;20074;-86
2021/07/09 14:22:23;;;;;;;11.38;6.22;;;;;;;;;;5025121;28;20439;-87
2021/07/09 14:24:50;;;;;;;7.63;4.97;;;;;;;;;;5025805;28;20183;-85
2021/07/09 14:27:16;;;;;;;11.23;5.05;;;;;;;;;;5025582;28;20060;-86
2021/07/09 14:29:43;;;;;;;8.18;4.45;;;;;;;;;;5024778;28;20066;-86
2021/07/09 14:32:11;;;;;;;8.50;4.43;;;;;;;;;;5024707;28;20050;-85
2021/07/09 14:34:38;;;;;;;7.38;5.05;;;;;;;;;;5025984;28;20061;-86
2021/07/09 14:37:15;;;;;;;7.63;4.45;;;;;;;;;;5025585;28;20109;-85
2021/07/09 14:39:43;;;;;;;7.25;4.60;;;;;;;;;;5025878;28;20050;-85
2021/07/09 14:42:12;;;;;;;11.13;5.05;;;;;;;;;;5026628;28;20113;-85
2021/07/09 14:44:45;;;;;;;9.23;5.10;;;;;;;;;;5028207;28;20046;-86
2021/07/09 14:47:12;;;;;;;9.85;5.10;;;;;;;;;;5027289;28;20054;-86
2021/07/09 14:49:43;;;;;;;8.45;4.65;;;;;;;;;;5026302;28;20105;-86
2021/07/09 14:52:25;;;;;;;11.48;4.82;;;;;;;;;;5046042;28;20060;-85
2021/07/09 14:54:52;;;;;;;8.77;5.00;;;;;;;;;;5043969;28;20049;-85
2021/07/09 14:57:19;;;;;;;8.57;5.32;;;;;;;;;;5046737;28;20053;-85
2021/07/09 14:59:46;;;;;;;6.90;4.90;;;;;;;;;;5049171;28;20116;-85
2021/07/09 15:02:13;;;;;;;8.00;5.25;;;;;;;;;;5045152;28;20418;-87
2021/07/09 15:04:39;;;;;;;7.10;4.40;;;;;;;;;;5039937;28;20152;-85
2021/07/09 15:07:06;;;;;;;12.20;4.68;;;;;;;;;;5047022;28;20044;-86